Time;durP1;ratioP1;P1;durP2;ratioP2;P2;SDS_P1;SDS_P2;PMS_P1;PMS_P2;Temp;Humidity;BMP_temperature;BMP_pressure;BME280_temperature;BME280_humidity;BME280_pressure;Samples;Min_cycle;Max_cycle;Signal;HPM_P1;HPM_P2
2023/04/19 00:01:16;;;;;;;9.70;8.10;;;15.90;62.90;;;;;;5055432;28;20455;-73
2023/04/19 00:03:44;;;;;;;10.57;8.23;;;15.90;63.00;;;;;;5067591;28;20505;-72
2023/04/19 00:06:13;;;;;;;8.77;7.70;;;15.90;63.20;;;;;;5068386;28;20501;-73
2023/04/19 00:08:40;;;;;;;10.23;8.57;;;15.90;63.10;;;;;;5033380;28;20462;-73
2023/04/19 00:11:07;;;;;;;9.93;8.13;;;15.90;63.00;;;;;;5056482;28;20490;-73
2023/04/19 00:13:34;;;;;;;10.27;8.47;;;15.90;63.10;;;;;;5054421;28;20454;-73
2023/04/19 00:16:01;;;;;;;10.07;8.53;;;15.90;63.10;;;;;;5071913;28;20467;-73
2023/04/19 00:18:28;;;;;;;9.60;7.67;;;15.80;63.00;;;;;;5072244;28;20443;-72
2023/04/19 00:20:56;;;;;;;10.50;8.97;;;15.80;63.00;;;;;;5071971;28;20443;-72
2023/04/19 00:23:24;;;;;;;10.47;8.47;;;15.90;63.10;;;;;;5067686;28;20801;-72
2023/04/19 00:25:51;;;;;;;10.33;9.20;;;15.90;63.10;;;;;;5068882;28;20474;-72
2023/04/19 00:28:18;;;;;;;8.83;7.50;;;15.80;63.00;;;;;;5071407;28;20467;-71
2023/04/19 00:30:45;;;;;;;9.47;8.47;;;15.80;63.00;;;;;;5059828;28;20455;-74
2023/04/19 00:33:12;;;;;;;11.03;8.70;;;15.80;63.00;;;;;;5067948;28;20558;-73
2023/04/19 00:35:40;;;;;;;9.77;8.63;;;15.80;63.00;;;;;;5057158;28;20459;-73
2023/04/19 00:38:09;;;;;;;9.73;8.30;;;15.80;63.00;;;;;;5064215;28;20487;-73
2023/04/19 00:40:36;;;;;;;9.77;8.40;;;15.80;63.00;;;;;;5056998;28;20453;-73
2023/04/19 00:43:03;;;;;;;10.27;8.67;;;15.80;63.10;;;;;;5059695;28;20459;-72
2023/04/19 00:45:32;;;;;;;9.30;8.30;;;15.80;63.30;;;;;;5061305;28;20479;-74
2023/04/19 00:48:00;;;;;;;10.53;9.07;;;15.80;63.20;;;;;;5057222;28;20448;-72
2023/04/19 00:50:27;;;;;;;11.50;8.97;;;15.80;63.00;;;;;;5058725;28;20449;-73
2023/04/19 00:52:55;;;;;;;9.83;8.40;;;15.80;63.00;;;;;;5062826;28;20456;-73
2023/04/19 00:55:24;;;;;;;9.73;8.57;;;15.80;63.20;;;;;;5051565;28;20452;-73
2023/04/19 00:57:51;;;;;;;10.37;8.67;;;15.80;63.20;;;;;;5057153;28;20832;-73
2023/04/19 01:00:19;;;;;;;8.87;7.50;;;15.80;63.30;;;;;;5071463;28;20470;-72
2023/04/19 01:02:46;;;;;;;11.50;9.30;;;15.80;63.30;;;;;;5059968;28;20476;-73
2023/04/19 01:05:13;;;;;;;10.03;8.10;;;15.70;63.40;;;;;;5060915;28;20875;-73
2023/04/19 01:07:40;;;;;;;10.33;9.23;;;15.80;63.50;;;;;;5065316;28;20471;-73
2023/04/19 01:10:07;;;;;;;10.00;8.60;;;15.70;63.20;;;;;;5071199;28;20828;-73
2023/04/19 01:12:35;;;;;;;10.87;8.83;;;15.70;63.50;;;;;;5062255;28;20455;-73
2023/04/19 01:15:03;;;;;;;10.80;8.83;;;15.70;63.60;;;;;;5064219;28;20449;-73
2023/04/19 01:17:32;;;;;;;9.37;8.07;;;15.60;63.50;;;;;;5073426;28;20479;-73
2023/04/19 01:20:00;;;;;;;10.97;9.40;;;15.60;63.80;;;;;;5062188;28;20504;-73
2023/04/19 01:22:30;;;;;;;10.03;8.50;;;15.60;63.80;;;;;;5061151;28;20447;-73
2023/04/19 01:24:58;;;;;;;10.93;9.03;;;15.60;63.70;;;;;;5054400;28;20520;-74
2023/04/19 01:27:25;;;;;;;11.20;8.70;;;15.60;63.70;;;;;;5064110;28;20459;-74
2023/04/19 01:29:52;;;;;;;11.87;8.93;;;15.60;63.80;;;;;;5054055;28;20475;-74
2023/04/19 01:32:20;;;;;;;9.30;8.33;;;15.60;63.80;;;;;;5064112;28;20452;-74
2023/04/19 01:34:47;;;;;;;10.40;8.43;;;15.60;63.90;;;;;;5059956;28;20447;-74
2023/04/19 01:37:14;;;;;;;11.23;9.17;;;15.60;64.10;;;;;;5066074;28;20480;-74
2023/04/19 01:39:42;;;;;;;11.93;9.87;;;15.50;64.10;;;;;;5069963;28;20459;-74
2023/04/19 01:42:09;;;;;;;13.13;9.77;;;15.50;64.10;;;;;;5065227;28;20456;-73
2023/04/19 01:44:36;;;;;;;12.43;9.93;;;15.50;63.90;;;;;;5056977;28;20448;-74
2023/04/19 01:47:04;;;;;;;10.53;8.70;;;15.50;63.80;;;;;;5053897;28;20445;-73
2023/04/19 01:49:30;;;;;;;11.10;9.23;;;15.40;63.90;;;;;;5053397;28;21003;-74
2023/04/19 01:51:57;;;;;;;9.90;8.63;;;15.40;64.20;;;;;;5054069;28;20457;-73
2023/04/19 01:54:24;;;;;;;17.17;9.53;;;15.50;64.40;;;;;;5054806;28;20494;-75
2023/04/19 01:56:52;;;;;;;10.27;9.17;;;15.50;64.40;;;;;;5054015;28;20498;-72
2023/04/19 01:59:20;;;;;;;11.07;9.17;;;15.50;64.30;;;;;;5053985;28;20444;-73
2023/04/19 02:01:47;;;;;;;9.83;8.80;;;15.50;64.30;;;;;;5053822;28;20810;-73
2023/04/19 02:04:14;;;;;;;10.43;8.90;;;15.40;64.30;;;;;;5054091;28;20454;-73
2023/04/19 02:06:41;;;;;;;11.60;9.90;;;15.50;64.40;;;;;;5057523;28;20443;-72
2023/04/19 02:09:09;;;;;;;10.33;8.70;;;15.40;64.30;;;;;;5055593;28;20440;-73
2023/04/19 02:11:37;;;;;;;11.90;9.33;;;15.50;64.40;;;;;;5061951;28;20850;-74
2023/04/19 02:14:05;;;;;;;10.27;8.90;;;15.40;64.30;;;;;;5061761;28;20444;-73
2023/04/19 02:16:32;;;;;;;11.17;9.10;;;15.40;64.30;;;;;;5064054;28;20475;-74
2023/04/19 02:19:00;;;;;;;12.27;9.07;;;15.50;64.40;;;;;;5060286;28;20456;-74
2023/04/19 02:21:27;;;;;;;10.40;8.33;;;15.50;65.10;;;;;;5069950;28;20444;-72
2023/04/19 02:23:54;;;;;;;10.67;8.90;;;15.50;64.40;;;;;;5060465;28;20483;-74
2023/04/19 02:26:23;;;;;;;8.57;7.63;;;15.50;64.40;;;;;;5070396;28;20455;-73
2023/04/19 02:28:51;;;;;;;11.70;9.57;;;15.50;64.30;;;;;;5064738;28;20867;-73
2023/04/19 02:31:19;;;;;;;10.53;8.67;;;15.50;64.40;;;;;;5052422;28;20531;-73
2023/04/19 02:33:46;;;;;;;10.43;8.50;;;15.50;64.30;;;;;;5055100;28;20453;-73
2023/04/19 02:36:13;;;;;;;10.90;8.77;;;15.50;64.20;;;;;;5055592;28;20463;-73
2023/04/19 02:38:40;;;;;;;10.57;8.50;;;15.50;64.20;;;;;;5052819;28;21006;-72
2023/04/19 02:41:07;;;;;;;9.80;8.80;;;15.50;64.20;;;;;;5052853;28;20476;-72
2023/04/19 02:43:34;;;;;;;10.70;8.57;;;15.50;64.30;;;;;;5052641;28;20449;-73
2023/04/19 02:46:01;;;;;;;9.50;8.50;;;15.50;64.20;;;;;;5052319;28;20537;-73
2023/04/19 02:48:30;;;;;;;10.03;8.90;;;15.50;64.10;;;;;;5053041;28;20530;-73
2023/04/19 02:50:57;;;;;;;10.47;8.67;;;15.50;64.10;;;;;;5054163;28;20466;-72
2023/04/19 02:53:24;;;;;;;9.83;8.50;;;15.40;64.10;;;;;;5064599;28;20480;-73
2023/04/19 02:55:51;;;;;;;11.53;9.17;;;15.50;64.30;;;;;;5053568;28;20553;-73
2023/04/19 02:58:18;;;;;;;9.57;8.27;;;15.50;64.40;;;;;;5053017;28;20578;-73
2023/04/19 03:00:45;;;;;;;11.30;8.47;;;15.40;64.30;;;;;;5067949;28;20525;-73
2023/04/19 03:03:12;;;;;;;10.73;8.63;;;15.50;64.30;;;;;;5055532;28;20535;-73
2023/04/19 03:05:40;;;;;;;9.47;8.33;;;15.40;64.10;;;;;;5069192;28;20546;-73
2023/04/19 03:08:07;;;;;;;10.60;8.93;;;15.40;64.20;;;;;;5063798;28;20444;-72
2023/04/19 03:10:33;;;;;;;10.60;9.03;;;15.40;64.20;;;;;;5047214;28;20454;-72
2023/04/19 03:13:00;;;;;;;10.27;8.60;;;15.40;64.10;;;;;;5059300;28;20478;-73
2023/04/19 03:15:27;;;;;;;10.73;8.63;;;15.40;64.20;;;;;;5063611;28;20448;-72
2023/04/19 03:17:56;;;;;;;9.07;7.80;;;15.40;64.30;;;;;;5061483;28;20580;-73
2023/04/19 03:20:25;;;;;;;10.13;8.20;;;15.30;64.20;;;;;;5071763;28;20461;-73
2023/04/19 03:22:53;;;;;;;10.20;8.37;;;15.40;64.30;;;;;;5054708;28;20482;-73
2023/04/19 03:25:21;;;;;;;9.20;7.90;;;15.30;64.20;;;;;;5068813;28;20459;-73
2023/04/19 03:27:49;;;;;;;9.60;8.07;;;15.40;64.20;;;;;;5070292;28;20951;-73
2023/04/19 03:30:16;;;;;;;9.37;7.90;;;15.40;64.00;;;;;;5042859;28;20445;-74
2023/04/19 03:32:43;;;;;;;10.87;7.97;;;15.40;64.20;;;;;;5063883;28;20483;-73
2023/04/19 03:35:10;;;;;;;9.93;8.53;;;15.40;64.20;;;;;;5052090;28;20456;-73
2023/04/19 03:37:37;;;;;;;8.30;7.40;;;15.30;63.80;;;;;;5051413;28;20498;-73
2023/04/19 03:40:07;;;;;;;9.97;8.37;;;15.30;63.80;;;;;;5051116;28;20832;-74
2023/04/19 03:42:34;;;;;;;9.83;7.90;;;15.30;64.00;;;;;;5051727;28;20504;-73
2023/04/19 03:45:01;;;;;;;7.83;7.03;;;15.30;64.10;;;;;;5052347;28;20470;-73
2023/04/19 03:47:29;;;;;;;10.47;8.10;;;15.30;64.70;;;;;;5057678;28;20444;-73
2023/04/19 03:49:56;;;;;;;8.47;7.67;;;15.30;63.90;;;;;;5042577;28;20568;-73
2023/04/19 03:52:24;;;;;;;7.90;7.03;;;15.30;63.80;;;;;;5060999;28;20452;-73
2023/04/19 03:54:51;;;;;;;8.73;7.60;;;15.30;63.70;;;;;;5052637;28;20485;-73
2023/04/19 03:57:21;;;;;;;8.77;7.57;;;15.30;63.80;;;;;;5059825;28;20863;-73
2023/04/19 03:59:47;;;;;;;7.57;6.77;;;15.30;63.70;;;;;;5052933;28;20534;-72
2023/04/19 04:02:14;;;;;;;9.00;7.77;;;15.40;63.80;;;;;;5054882;28;20937;-73
2023/04/19 04:04:41;;;;;;;8.00;7.20;;;15.30;63.70;;;;;;5057791;28;20444;-73
2023/04/19 04:07:09;;;;;;;8.30;7.17;;;15.40;63.80;;;;;;5068229;28;20476;-72
2023/04/19 04:09:36;;;;;;;8.50;6.93;;;15.30;63.60;;;;;;5064241;28;20462;-73
2023/04/19 04:12:03;;;;;;;7.83;6.90;;;15.30;63.60;;;;;;5054092;28;20565;-72
2023/04/19 04:14:32;;;;;;;7.93;7.13;;;15.30;63.50;;;;;;5057003;28;20448;-73
2023/04/19 04:16:58;;;;;;;7.50;6.70;;;15.30;63.80;;;;;;5060571;28;20555;-73
2023/04/19 04:19:26;;;;;;;8.77;7.23;;;15.30;64.00;;;;;;5062580;28;20483;-73
2023/04/19 04:21:53;;;;;;;10.23;7.70;;;15.30;63.70;;;;;;5052352;28;20534;-73
2023/04/19 04:24:21;;;;;;;8.17;7.37;;;15.20;63.70;;;;;;5068580;28;20490;-73
2023/04/19 04:26:48;;;;;;;10.03;6.93;;;15.20;63.80;;;;;;5072270;28;20458;-73
2023/04/19 04:29:15;;;;;;;8.40;6.50;;;15.20;63.80;;;;;;5065600;28;20476;-73
2023/04/19 04:31:43;;;;;;;7.97;7.03;;;15.20;63.60;;;;;;5072344;28;20465;-73
2023/04/19 04:34:10;;;;;;;7.57;6.77;;;15.20;63.70;;;;;;5058347;28;20846;-72
2023/04/19 04:36:37;;;;;;;9.10;7.63;;;15.20;63.40;;;;;;5068429;28;20487;-73
2023/04/19 04:39:05;;;;;;;8.23;7.03;;;15.20;63.60;;;;;;5060133;28;20571;-74
2023/04/19 04:41:32;;;;;;;7.47;6.60;;;15.20;63.60;;;;;;5070376;28;20476;-73
2023/04/19 04:44:00;;;;;;;7.77;6.73;;;15.20;63.70;;;;;;5070693;28;20514;-74
2023/04/19 04:46:26;;;;;;;7.67;6.50;;;15.20;63.60;;;;;;5055470;28;20460;-75
2023/04/19 04:48:56;;;;;;;7.70;6.77;;;15.20;63.60;;;;;;5058844;28;21098;-73
2023/04/19 04:51:22;;;;;;;7.97;7.17;;;15.20;63.60;;;;;;5050693;28;20454;-73
2023/04/19 04:53:49;;;;;;;7.97;7.10;;;15.20;63.60;;;;;;5071611;28;20477;-73
2023/04/19 04:56:16;;;;;;;8.00;6.73;;;15.20;63.60;;;;;;5071529;28;20456;-72
2023/04/19 04:58:43;;;;;;;8.60;7.17;;;15.20;63.80;;;;;;5054713;28;20498;-72
2023/04/19 05:01:10;;;;;;;7.93;7.13;;;15.20;63.70;;;;;;5054660;28;20944;-73
2023/04/19 05:03:38;;;;;;;7.60;6.90;;;15.20;63.50;;;;;;5063984;28;20461;-73
2023/04/19 05:06:07;;;;;;;6.90;6.20;;;15.20;63.70;;;;;;5071711;28;20478;-73
2023/04/19 05:08:34;;;;;;;8.90;7.10;;;15.20;63.90;;;;;;5065849;28;20447;-73
2023/04/19 05:11:01;;;;;;;8.67;7.37;;;15.20;63.80;;;;;;5036274;28;20478;-73
2023/04/19 05:13:28;;;;;;;7.80;7.00;;;15.30;63.70;;;;;;5061876;28;20456;-73
2023/04/19 05:15:54;;;;;;;8.63;7.03;;;15.30;63.60;;;;;;5063526;28;20451;-73
2023/04/19 05:18:21;;;;;;;9.03;7.17;;;15.30;63.50;;;;;;5074599;28;20479;-73
2023/04/19 05:20:48;;;;;;;8.67;7.33;;;15.30;63.70;;;;;;5063992;28;20487;-72
2023/04/19 05:23:17;;;;;;;7.50;6.80;;;15.30;63.70;;;;;;5063105;28;20474;-72
2023/04/19 05:25:44;;;;;;;8.47;7.13;;;15.30;63.80;;;;;;5058392;28;20459;-72
2023/04/19 05:28:11;;;;;;;7.57;6.77;;;15.30;63.70;;;;;;5071186;28;20463;-72
2023/04/19 05:30:38;;;;;;;7.33;6.47;;;15.30;63.50;;;;;;5057515;28;20449;-73
2023/04/19 05:33:05;;;;;;;8.17;7.37;;;15.30;63.40;;;;;;5057424;28;20448;-74
2023/04/19 05:35:31;;;;;;;8.50;7.13;;;15.40;63.50;;;;;;5062352;28;20479;-74
2023/04/19 05:37:58;;;;;;;9.97;7.13;;;15.40;63.50;;;;;;5061388;28;20602;-75
2023/04/19 05:40:28;;;;;;;8.63;7.40;;;15.50;63.30;;;;;;5070914;28;20904;-75
2023/04/19 05:42:55;;;;;;;8.07;7.20;;;15.50;63.30;;;;;;5061903;28;20478;-75
2023/04/19 05:45:22;;;;;;;7.67;6.77;;;15.50;63.10;;;;;;5072664;28;20979;-75
2023/04/19 05:47:49;;;;;;;7.33;6.60;;;15.50;63.20;;;;;;5062326;28;20472;-75
2023/04/19 05:50:16;;;;;;;6.77;6.07;;;15.60;63.30;;;;;;5062041;28;20448;-75
2023/04/19 05:52:43;;;;;;;7.10;6.40;;;15.60;63.00;;;;;;5054849;28;20659;-74
2023/04/19 05:55:10;;;;;;;9.20;7.07;;;15.70;63.30;;;;;;5058692;28;20507;-73
2023/04/19 05:57:38;;;;;;;9.17;7.20;;;15.70;63.30;;;;;;5055225;28;20801;-72
2023/04/19 06:00:08;;;;;;;7.33;6.63;;;15.80;63.10;;;;;;5053954;28;21013;-73
2023/04/19 06:02:35;;;;;;;7.40;6.67;;;15.80;62.80;;;;;;5072296;28;20465;-72
2023/04/19 06:05:03;;;;;;;9.97;7.07;;;15.80;63.00;;;;;;5065524;28;20471;-77
2023/04/19 06:07:29;;;;;;;7.43;6.63;;;15.90;62.80;;;;;;5065372;28;20453;-73
2023/04/19 06:09:56;;;;;;;7.13;6.40;;;15.90;62.50;;;;;;5065995;28;20472;-74
2023/04/19 06:12:23;;;;;;;7.00;6.30;;;15.90;62.10;;;;;;5041839;28;20455;-73
2023/04/19 06:14:52;;;;;;;7.53;6.80;;;15.90;62.30;;;;;;5060054;28;20454;-73
2023/04/19 06:17:23;;;;;;;8.83;7.03;;;15.90;62.50;;;;;;5067632;28;20474;-73
2023/04/19 06:19:50;;;;;;;8.03;7.23;;;16.00;62.60;;;;;;5067274;28;20480;-72
2023/04/19 06:22:17;;;;;;;7.80;6.80;;;16.00;62.30;;;;;;5061081;28;20999;-73
2023/04/19 06:24:44;;;;;;;8.23;7.00;;;16.00;62.20;;;;;;5068311;28;20562;-73
2023/04/19 06:27:12;;;;;;;8.90;7.10;;;16.00;61.60;;;;;;5058975;28;20456;-73
2023/04/19 06:29:39;;;;;;;7.73;6.93;;;16.00;61.50;;;;;;5071802;28;20448;-73
2023/04/19 06:32:09;;;;;;;8.47;7.03;;;16.00;61.40;;;;;;5064851;28;20454;-74
2023/04/19 06:34:36;;;;;;;7.77;6.97;;;16.10;61.50;;;;;;5062547;28;20482;-73
2023/04/19 06:37:03;;;;;;;10.07;6.67;;;16.00;61.10;;;;;;5033740;28;20805;-72
2023/04/19 06:39:30;;;;;;;7.80;7.00;;;16.00;61.40;;;;;;5054393;28;20496;-73
2023/04/19 06:41:57;;;;;;;7.43;6.73;;;16.00;61.40;;;;;;5029582;28;20440;-73
2023/04/19 06:44:24;;;;;;;8.00;7.20;;;16.00;61.70;;;;;;5066005;28;20490;-74
2023/04/19 06:46:51;;;;;;;9.57;6.27;;;16.00;61.60;;;;;;5068518;28;20562;-73
2023/04/19 06:49:19;;;;;;;7.63;6.83;;;16.00;61.70;;;;;;5063891;28;20443;-73
2023/04/19 06:51:46;;;;;;;8.77;6.93;;;16.10;61.60;;;;;;5071918;28;20458;-73
2023/04/19 06:54:13;;;;;;;8.90;6.77;;;16.10;61.70;;;;;;5072503;28;20459;-72
2023/04/19 06:56:44;;;;;;;7.67;6.87;;;16.20;61.60;;;;;;5072672;28;20454;-75
2023/04/19 06:59:11;;;;;;;7.73;6.47;;;16.20;61.70;;;;;;5072188;28;20495;-73
2023/04/19 07:01:39;;;;;;;8.33;6.03;;;16.30;61.50;;;;;;5072209;28;20447;-73
2023/04/19 07:04:06;;;;;;;7.60;6.77;;;16.30;61.40;;;;;;5072190;28;20447;-73
2023/04/19 07:06:36;;;;;;;8.07;7.13;;;16.30;61.10;;;;;;5070294;28;20439;-74
2023/04/19 07:09:04;;;;;;;8.10;7.30;;;16.40;61.20;;;;;;5072322;28;20444;-74
2023/04/19 07:11:32;;;;;;;7.20;6.50;;;16.40;61.40;;;;;;5071659;28;20475;-73
2023/04/19 07:14:00;;;;;;;7.93;7.00;;;16.50;61.00;;;;;;5071702;28;20458;-73
2023/04/19 07:16:28;;;;;;;6.97;6.27;;;16.60;61.10;;;;;;5072054;28;20447;-74
2023/04/19 07:18:56;;;;;;;7.70;6.43;;;16.70;61.60;;;;;;5071481;28;20491;-73
2023/04/19 07:21:25;;;;;;;8.17;6.73;;;16.80;61.40;;;;;;5071456;28;20444;-74
2023/04/19 07:23:53;;;;;;;7.40;6.67;;;16.80;61.10;;;;;;5071892;28;20451;-73
2023/04/19 07:26:20;;;;;;;7.60;6.90;;;16.80;61.30;;;;;;5072070;28;20538;-73
2023/04/19 07:28:47;;;;;;;7.50;6.40;;;16.90;61.10;;;;;;5071806;28;20458;-74
2023/04/19 07:31:17;;;;;;;7.87;7.07;;;16.80;60.70;;;;;;5035956;28;20471;-73
2023/04/19 07:33:45;;;;;;;7.37;6.50;;;16.80;60.60;;;;;;5071422;28;20461;-73
2023/04/19 07:36:12;;;;;;;8.63;7.10;;;16.90;61.10;;;;;;5070765;28;20451;-74
2023/04/19 07:38:39;;;;;;;7.27;6.20;;;16.90;61.10;;;;;;5071459;28;21034;-73
2023/04/19 07:41:09;;;;;;;7.73;6.67;;;17.00;60.90;;;;;;5071249;28;20447;-74
2023/04/19 07:43:36;;;;;;;8.27;7.40;;;17.00;60.90;;;;;;5071700;28;20535;-74
2023/04/19 07:46:09;;;;;;;9.90;6.77;;;17.10;60.50;;;;;;5071664;28;20457;-72
2023/04/19 07:48:36;;;;;;;7.40;6.70;;;17.20;59.90;;;;;;5035645;28;20443;-73
2023/04/19 07:51:09;;;;;;;7.83;6.93;;;17.20;59.70;;;;;;5071207;28;20548;-74
2023/04/19 07:53:36;;;;;;;6.97;6.27;;;17.30;59.40;;;;;;5071714;28;20550;-74
2023/04/19 07:56:03;;;;;;;7.33;6.57;;;17.30;59.40;;;;;;5071564;28;20541;-73
2023/04/19 07:58:31;;;;;;;7.27;6.50;;;17.30;59.50;;;;;;5056150;28;20480;-74
2023/04/19 08:00:58;;;;;;;7.70;6.90;;;17.40;59.90;;;;;;5049770;28;20454;-73
2023/04/19 08:03:25;;;;;;;7.30;6.43;;;17.50;59.60;;;;;;5051200;28;20836;-72
2023/04/19 08:05:52;;;;;;;6.97;6.27;;;17.60;59.60;;;;;;5051547;28;20546;-73
2023/04/19 08:08:19;;;;;;;7.30;6.20;;;17.70;59.30;;;;;;5071117;28;20443;-73
2023/04/19 08:10:48;;;;;;;8.57;7.00;;;17.90;59.40;;;;;;5071167;28;20472;-73
2023/04/19 08:13:14;;;;;;;8.53;6.67;;;18.00;60.00;;;;;;5073598;28;20451;-73
2023/04/19 08:15:44;;;;;;;8.50;7.60;;;18.10;59.30;;;;;;5073834;28;20554;-73
2023/04/19 08:18:11;;;;;;;9.03;6.70;;;18.20;58.70;;;;;;5071753;28;20483;-74
2023/04/19 08:20:37;;;;;;;8.23;6.80;;;18.30;59.00;;;;;;5071470;28;20317;-74
2023/04/19 08:23:06;;;;;;;7.30;6.60;;;18.40;58.70;;;;;;5072459;28;20474;-74
2023/04/19 08:25:34;;;;;;;7.63;6.93;;;18.40;59.10;;;;;;5074341;28;20503;-74
2023/04/19 08:28:02;;;;;;;8.53;7.63;;;18.40;59.20;;;;;;5074725;28;20546;-74
2023/04/19 08:30:29;;;;;;;8.13;7.03;;;18.40;59.10;;;;;;5073644;28;20478;-73
2023/04/19 08:32:57;;;;;;;9.23;7.17;;;18.40;58.10;;;;;;5073671;28;20307;-73
2023/04/19 08:35:24;;;;;;;9.60;6.53;;;18.40;58.00;;;;;;5038392;28;20819;-73
2023/04/19 08:37:51;;;;;;;7.43;6.67;;;18.50;58.30;;;;;;5074907;28;20473;-74
2023/04/19 08:40:18;;;;;;;7.13;6.43;;;18.60;57.80;;;;;;5073661;28;20483;-73
2023/04/19 08:42:45;;;;;;;7.47;6.70;;;18.70;58.50;;;;;;5074135;28;20553;-73
2023/04/19 08:45:14;;;;;;;7.57;6.83;;;18.70;57.80;;;;;;5074687;28;20448;-73
2023/04/19 08:47:41;;;;;;;7.63;6.93;;;18.70;58.00;;;;;;5074013;28;20447;-73
2023/04/19 08:50:10;;;;;;;7.07;6.10;;;18.70;57.30;;;;;;5074296;28;20467;-73
2023/04/19 08:52:38;;;;;;;7.60;6.73;;;18.70;57.40;;;;;;5074614;28;20296;-73
2023/04/19 08:55:06;;;;;;;8.20;7.10;;;18.70;57.60;;;;;;5074555;28;20240;-74
2023/04/19 08:57:35;;;;;;;10.33;6.27;;;18.70;57.50;;;;;;5074809;28;20227;-73
2023/04/19 09:00:05;;;;;;;7.57;6.43;;;18.60;57.80;;;;;;5074585;28;20320;-73
2023/04/19 09:02:45;;;;;;;7.50;6.60;;;18.60;57.30;;;;;;5074211;28;20724;-73
2023/04/19 09:05:14;;;;;;;6.87;5.37;;;18.60;57.20;;;;;;5074477;28;20675;-73
2023/04/19 09:07:42;;;;;;;6.10;5.50;;;18.60;57.50;;;;;;5074428;28;20201;-73
2023/04/19 09:10:11;;;;;;;7.23;6.03;;;18.50;57.70;;;;;;5074361;28;20927;-73
2023/04/19 09:12:39;;;;;;;7.93;7.10;;;18.50;57.40;;;;;;5074277;28;20453;-73
2023/04/19 09:15:08;;;;;;;7.53;6.40;;;18.50;57.40;;;;;;5074366;28;20477;-73
2023/04/19 09:17:36;;;;;;;7.57;6.40;;;18.40;57.60;;;;;;5074190;28;20205;-71
2023/04/19 09:20:04;;;;;;;7.50;6.13;;;18.40;57.80;;;;;;5072640;28;20487;-73
2023/04/19 09:22:33;;;;;;;6.90;6.20;;;18.40;57.90;;;;;;5070662;28;20477;-73
2023/04/19 09:25:00;;;;;;;7.70;6.97;;;18.30;58.00;;;;;;5074172;28;20490;-73
2023/04/19 09:27:29;;;;;;;7.40;6.70;;;18.30;58.00;;;;;;5073894;28;20447;-72
2023/04/19 09:29:57;;;;;;;8.10;7.30;;;18.20;58.00;;;;;;5074186;28;20443;-73
2023/04/19 09:32:24;;;;;;;8.33;6.70;;;18.10;58.00;;;;;;5073931;28;20443;-74
2023/04/19 09:34:53;;;;;;;7.07;6.13;;;18.10;58.10;;;;;;5073587;28;20471;-73
2023/04/19 09:37:20;;;;;;;7.37;6.67;;;18.10;58.20;;;;;;5072936;28;20455;-73
2023/04/19 09:39:48;;;;;;;8.43;7.03;;;18.10;59.00;;;;;;5073600;28;20483;-73
2023/04/19 09:42:16;;;;;;;7.60;6.53;;;18.10;58.50;;;;;;5073831;28;20479;-74
2023/04/19 09:44:56;;;;;;;7.83;6.50;;;18.10;58.50;;;;;;5073448;28;20447;-73
2023/04/19 09:47:24;;;;;;;7.00;6.17;;;18.20;59.00;;;;;;5073924;28;20477;-73
2023/04/19 09:50:05;;;;;;;8.63;6.40;;;18.20;58.30;;;;;;5073771;28;20448;-73
2023/04/19 09:52:33;;;;;;;8.43;6.00;;;18.30;58.20;;;;;;5073417;28;20451;-73
2023/04/19 09:55:03;;;;;;;6.27;5.67;;;18.40;58.60;;;;;;5073523;28;20970;-74
2023/04/19 09:57:31;;;;;;;7.97;6.73;;;18.40;58.70;;;;;;5073457;28;20972;-73
2023/04/19 09:59:59;;;;;;;7.57;6.60;;;18.60;58.60;;;;;;5073044;28;20487;-73
2023/04/19 10:02:30;;;;;;;8.70;6.10;;;18.60;58.10;;;;;;5073493;28;20981;-73
2023/04/19 10:04:59;;;;;;;6.60;5.80;;;18.70;57.80;;;;;;5073385;28;20457;-73
2023/04/19 10:07:26;;;;;;;6.13;5.53;;;18.70;57.20;;;;;;5073280;28;20809;-73
2023/04/19 10:09:56;;;;;;;7.10;6.17;;;18.80;57.50;;;;;;5073016;28;20534;-73
2023/04/19 10:12:26;;;;;;;7.80;6.07;;;18.80;58.00;;;;;;5073600;28;20212;-73
2023/04/19 10:14:55;;;;;;;6.20;5.60;;;18.90;58.20;;;;;;5072686;28;20542;-73
2023/04/19 10:17:22;;;;;;;6.70;5.83;;;19.00;58.90;;;;;;5073089;28;20450;-73
2023/04/19 10:19:52;;;;;;;7.87;7.07;;;19.10;58.20;;;;;;5072917;28;20229;-74
2023/04/19 10:22:19;;;;;;;8.10;6.50;;;19.10;58.60;;;;;;5073098;28;20447;-73
2023/04/19 10:25:11;;;;;;;8.33;6.77;;;19.20;57.70;;;;;;5072750;28;20217;-73
2023/04/19 10:27:44;;;;;;;6.90;6.20;;;19.20;57.30;;;;;;5053537;28;20435;-74
2023/04/19 10:30:18;;;;;;;6.33;5.60;;;19.20;57.70;;;;;;5072818;28;20201;-72
2023/04/19 10:32:51;;;;;;;7.50;6.33;;;19.10;57.10;;;;;;5072616;28;20324;-73
2023/04/19 10:35:19;;;;;;;6.33;5.50;;;19.10;57.40;;;;;;5072714;28;20270;-73
2023/04/19 10:38:08;;;;;;;6.77;5.97;;;19.10;57.80;;;;;;5072878;28;20292;-73
2023/04/19 10:40:55;;;;;;;6.40;5.80;;;19.10;58.00;;;;;;5072616;28;20880;-73
2023/04/19 10:43:24;;;;;;;6.87;6.17;;;19.10;57.60;;;;;;5072356;28;20216;-72
2023/04/19 10:45:51;;;;;;;6.80;6.10;;;19.10;57.80;;;;;;5072397;28;20234;-73
2023/04/19 10:48:42;;;;;;;6.47;5.87;;;19.10;57.60;;;;;;5071789;28;20475;-73
2023/04/19 10:51:14;;;;;;;8.13;6.20;;;19.00;57.90;;;;;;5072616;28;20205;-73
2023/04/19 10:53:52;;;;;;;6.57;5.40;;;19.10;57.60;;;;;;5071081;28;20869;-73
2023/04/19 10:56:21;;;;;;;6.53;5.63;;;19.00;57.60;;;;;;5072479;28;20483;-74
2023/04/19 11:01:58;;;;;;;6.10;5.47;;;19.00;57.90;;;;;;5071809;28;20215;-73
2023/04/19 11:05:00;;;;;;;5.90;5.30;;;19.00;58.40;;;;;;5071839;28;20681;-73
2023/04/19 11:07:28;;;;;;;6.37;5.47;;;19.00;58.50;;;;;;5072086;28;20458;-73
2023/04/19 11:09:55;;;;;;;6.20;5.60;;;19.00;58.80;;;;;;5036473;28;20531;-73
2023/04/19 11:12:22;;;;;;;6.20;5.60;;;19.00;58.90;;;;;;5071541;28;20604;-73
2023/04/19 11:14:52;;;;;;;6.77;6.07;;;18.90;58.50;;;;;;5071704;28;20201;-73
2023/04/19 11:17:24;;;;;;;6.93;6.33;;;18.90;58.60;;;;;;5071978;28;20454;-73
2023/04/19 11:19:55;;;;;;;6.13;5.50;;;18.80;58.50;;;;;;5071971;28;20324;-73
2023/04/19 11:22:26;;;;;;;6.93;5.67;;;18.80;58.40;;;;;;5071891;28;20220;-74
2023/04/19 11:24:53;;;;;;;6.90;5.90;;;18.70;58.50;;;;;;5071423;28;20967;-73
2023/04/19 11:27:21;;;;;;;6.10;5.33;;;18.70;58.60;;;;;;5071556;28;20443;-73
2023/04/19 11:29:49;;;;;;;6.30;5.70;;;18.60;58.80;;;;;;5071862;28;20597;-73
2023/04/19 11:32:21;;;;;;;6.07;5.47;;;18.60;58.90;;;;;;5071710;28;20447;-73
2023/04/19 11:34:48;;;;;;;5.77;5.20;;;18.50;59.00;;;;;;5071869;28;20543;-73
2023/04/19 11:37:15;;;;;;;5.40;4.77;;;18.50;59.10;;;;;;5071194;28;20555;-73
2023/04/19 11:39:46;;;;;;;5.70;5.00;;;18.50;59.50;;;;;;5070417;28;20673;-73
2023/04/19 11:42:20;;;;;;;6.77;5.67;;;18.40;59.80;;;;;;5070560;28;20208;-74
2023/04/19 11:44:52;;;;;;;6.93;5.63;;;18.40;60.00;;;;;;5070475;28;20541;-73
2023/04/19 11:47:19;;;;;;;6.47;5.87;;;18.40;60.40;;;;;;5070955;28;20454;-72
2023/04/19 11:49:46;;;;;;;6.23;5.33;;;18.40;61.60;;;;;;5071100;28;20689;-74
2023/04/19 11:52:20;;;;;;;6.07;5.43;;;18.30;62.00;;;;;;5071381;28;20483;-74
2023/04/19 11:54:47;;;;;;;6.73;5.90;;;18.30;62.80;;;;;;5071394;28;20537;-73
2023/04/19 11:57:14;;;;;;;6.30;5.67;;;18.20;62.80;;;;;;5071157;28;21133;-74
2023/04/19 12:00:10;;;;;;;8.77;6.30;;;18.10;63.20;;;;;;5071404;28;20530;-74
2023/04/19 12:02:38;;;;;;;9.03;6.60;;;18.10;64.70;;;;;;5071502;28;20447;-74
2023/04/19 12:05:14;;;;;;;6.57;5.97;;;18.00;64.70;;;;;;5071737;28;20466;-74
2023/04/19 12:08:02;;;;;;;6.70;6.10;;;18.00;64.80;;;;;;5071327;28;20916;-73
2023/04/19 12:10:31;;;;;;;7.03;6.33;;;18.00;65.30;;;;;;5035226;28;20225;-74
2023/04/19 12:12:58;;;;;;;6.93;6.13;;;18.00;65.10;;;;;;5071541;28;20792;-73
2023/04/19 12:15:41;;;;;;;6.33;5.73;;;17.90;64.80;;;;;;5071272;28;20475;-74
2023/04/19 12:18:08;;;;;;;7.80;6.30;;;17.90;65.50;;;;;;5071110;28;20455;-73
2023/04/19 12:20:36;;;;;;;6.83;6.13;;;17.80;65.50;;;;;;5071012;28;20986;-73
2023/04/19 12:23:05;;;;;;;6.63;6.03;;;17.80;66.00;;;;;;5071006;28;20467;-74
2023/04/19 12:25:34;;;;;;;6.83;6.17;;;17.80;65.60;;;;;;5070943;28;20520;-73
2023/04/19 12:28:03;;;;;;;6.73;5.77;;;17.80;65.90;;;;;;5070988;28;20939;-73
2023/04/19 12:30:31;;;;;;;7.20;6.27;;;17.80;65.40;;;;;;5071217;28;20459;-73
2023/04/19 12:32:59;;;;;;;6.37;5.77;;;17.70;65.20;;;;;;5071333;28;20825;-73
2023/04/19 12:35:27;;;;;;;6.60;5.90;;;17.70;65.50;;;;;;5071261;28;20475;-74
2023/04/19 12:37:56;;;;;;;7.90;7.10;;;17.70;65.40;;;;;;5070859;28;20444;-74
2023/04/19 12:40:24;;;;;;;7.87;6.87;;;17.70;65.00;;;;;;5070570;28;21029;-72
2023/04/19 12:42:51;;;;;;;8.13;6.93;;;17.60;64.50;;;;;;5070615;28;20485;-73
2023/04/19 12:45:19;;;;;;;8.23;6.73;;;17.60;64.20;;;;;;5071094;28;20538;-72
2023/04/19 12:47:48;;;;;;;8.67;6.43;;;17.60;64.00;;;;;;5051676;28;20546;-73
2023/04/19 12:50:16;;;;;;;7.10;6.40;;;17.50;64.20;;;;;;5051895;28;20474;-73
2023/04/19 12:52:45;;;;;;;7.93;7.23;;;17.50;64.50;;;;;;5070919;28;20497;-73
2023/04/19 12:55:12;;;;;;;8.77;6.83;;;17.50;64.60;;;;;;5070825;28;20511;-73